Catlin, Illinois
Current Conditions -  °F | °C
As of 2:15 PM on Monday 26 Jan 2015 (Local Time) from KDNV Reporting Station
Overcast Overcast  
Wind Chill: 28°   Ceiling: 2000
Heat Index: 28°   Visibility: 10mi
Dew Point: 22°   Wind: 3mph
Humidity: 78%   Direction: 250°WSW
Pressure: 29.87"   Gusts: NA
Location:  40.07°N, 87.7°W
Report Text: KDNV 262015Z AUTO 25003KT 10SM BKN020 OVC060 M02/M06 A2987 RMK AO2 T10251058
Loading
Personal Weather Stations






























Interactive Weather Map New forecast layout! Learn more

10-Day Weather Forecast

Advertisements
Track Severe Weather on mobile